KTRL/TRL METAR and TAF weather

Enter ICAO airport designator
Station Type Date Time Source
KTRL METAR 2022/11/27 07:53 UTC NOAA

KTRL 270753Z AUTO 22007KT 10SM CLR 08/05 A2977 RMK AO2 SLP079 T00780050


Station Type Date Time Source
KTRL Decoded METAR 2022/11/27 07:53 UTC NOAA

TERRELL MUNICIPAL AIRPORT, TX, United States (KTRL) 32-43N 96-16W 144M
Nov 27, 2022 - 02:53 AM EST / 2022.11.27 0753 UTC
Wind: from the SW (220 degrees) at 8 MPH (7 KT):0
Visibility: 10 mile(s):0
Sky conditions: clear
Temperature: 46.0 F (7.8 C)
Dew Point: 41.0 F (5.0 C)
Relative Humidity: 82%
Pressure (altimeter): 29.77 in. Hg (1008 hPa)
ob: KTRL 270753Z AUTO 22007KT 10SM CLR 08/05 A2977 RMK AO2 SLP079 T00780050
cycle: 8

Station Type Date Time Source
KTRL TAF UTC NOAA

Error!

Example: see airport list